Fukuoka, Japan
Current Conditions -  °F | °C
As of 10:30 AM on Saturday 25 Oct 2014 (Local Time) from RJFF Reporting Station
Few Clouds Few Clouds  
Wind Chill: 70°   Ceiling: Unl
Heat Index: 70°   Visibility: 6mi
Dew Point: 55°   Wind: 5mph
Humidity: 60%   Direction: 120°ESE
Pressure: 30.15"   Gusts: NA
Location:  33.59°N, 130.41°E
Report Text: RJFF 250130Z 12004KT 050V150 9999 FEW025 21/13 Q1021 RMK 1CU025 A3016
Loading
Personal Weather Stations






























Interactive Weather Map
Tropical Storm Tracking
New forecast layout! Learn more

10-Day Weather Forecast

Advertisements
Track Severe Weather on mobile